createdAt,value
2018-11-05T00:00:36.078Z,15.90
2018-11-05T00:03:06.454Z,16.73
2018-11-05T00:05:35.933Z,15.77
2018-11-05T00:08:05.461Z,17.27
2018-11-05T00:10:34.834Z,17.37
2018-11-05T00:13:04.185Z,17.00
2018-11-05T00:15:33.715Z,18.00
2018-11-05T00:18:07.115Z,16.80
2018-11-05T00:20:36.467Z,16.33
2018-11-05T00:23:05.806Z,16.27
2018-11-05T00:25:35.161Z,18.13
2018-11-05T00:28:04.516Z,18.33
2018-11-05T00:30:33.941Z,20.63
2018-11-05T00:33:03.272Z,17.37
2018-11-05T00:35:32.746Z,16.13
2018-11-05T00:38:02.175Z,17.50
2018-11-05T00:40:31.489Z,18.10
2018-11-05T00:43:00.801Z,17.40
2018-11-05T00:45:30.227Z,19.00
2018-11-05T00:47:59.597Z,19.73
2018-11-05T00:50:29.137Z,19.43
2018-11-05T00:52:58.556Z,17.57
2018-11-05T00:55:27.946Z,19.33
2018-11-05T00:57:57.256Z,18.57
2018-11-05T01:00:26.592Z,19.93
2018-11-05T01:02:56.088Z,18.13
2018-11-05T01:05:25.662Z,19.07
2018-11-05T01:07:54.980Z,18.00
2018-11-05T01:10:24.420Z,19.73
2018-11-05T01:12:53.806Z,19.87
2018-11-05T01:15:23.165Z,19.90
2018-11-05T01:17:52.595Z,20.33
2018-11-05T01:20:21.946Z,21.50
2018-11-05T01:22:51.326Z,21.73
2018-11-05T01:25:20.815Z,19.40
2018-11-05T01:27:50.145Z,20.67
2018-11-05T01:30:19.438Z,21.40
2018-11-05T01:32:48.734Z,20.70
2018-11-05T01:35:18.086Z,20.23
2018-11-05T01:37:47.434Z,18.43
2018-11-05T01:40:16.772Z,23.57
2018-11-05T01:42:46.086Z,21.93
2018-11-05T01:45:15.724Z,24.27
2018-11-05T01:47:45.690Z,24.17
2018-11-05T01:50:16.235Z,24.57
2018-11-05T01:52:45.801Z,23.90
2018-11-05T01:55:15.234Z,23.70
2018-11-05T01:57:44.633Z,24.50
2018-11-05T02:00:16.065Z,21.10
2018-11-05T02:02:46.257Z,22.97
2018-11-05T02:05:15.677Z,24.37
2018-11-05T02:07:45.841Z,23.17
2018-11-05T02:10:18.326Z,26.27
2018-11-05T02:12:47.729Z,27.63
2018-11-05T02:15:17.203Z,26.47
2018-11-05T02:17:47.091Z,27.00
2018-11-05T02:20:17.221Z,28.07
2018-11-05T02:22:46.674Z,27.37
2018-11-05T02:25:16.076Z,26.83
2018-11-05T02:27:45.467Z,29.43
2018-11-05T02:30:16.949Z,29.47
2018-11-05T02:32:46.761Z,28.47
2018-11-05T02:35:17.114Z,28.53
2018-11-05T02:37:47.201Z,29.03
2018-11-05T02:40:19.350Z,29.63
2018-11-05T02:42:49.277Z,27.67
2018-11-05T02:45:19.624Z,29.70
2018-11-05T02:47:49.019Z,28.40
2018-11-05T02:50:18.407Z,30.80
2018-11-05T02:52:48.037Z,28.80
2018-11-05T02:55:17.386Z,29.53
2018-11-05T02:57:46.734Z,30.43
2018-11-05T03:00:19.238Z,30.97
2018-11-05T03:02:48.636Z,30.63
2018-11-05T03:05:19.277Z,31.93
2018-11-05T03:07:49.481Z,29.90
2018-11-05T03:10:18.853Z,32.27
2018-11-05T03:12:48.979Z,32.40
2018-11-05T03:15:20.441Z,29.33
2018-11-05T03:17:49.809Z,28.80
2018-11-05T03:20:19.177Z,32.40
2018-11-05T03:22:48.432Z,33.13
2018-11-05T03:25:17.771Z,29.70
2018-11-05T03:27:47.066Z,34.07
2018-11-05T03:30:17.823Z,31.17
2018-11-05T03:32:47.590Z,32.97
2018-11-05T03:35:16.972Z,34.37
2018-11-05T03:37:47.020Z,32.63
2018-11-05T03:40:16.515Z,32.70
2018-11-05T03:42:45.877Z,34.70
2018-11-05T03:45:16.500Z,33.37
2018-11-05T03:47:46.292Z,36.33
2018-11-05T03:50:18.786Z,33.13
2018-11-05T03:52:48.447Z,34.67
2018-11-05T03:55:18.387Z,37.70
2018-11-05T03:57:47.836Z,33.57
2018-11-05T04:00:18.198Z,35.77
2018-11-05T04:02:47.527Z,35.30
2018-11-05T04:05:16.954Z,36.00
2018-11-05T04:07:46.314Z,37.33
2018-11-05T04:10:15.612Z,36.73
2018-11-05T04:12:45.010Z,34.40
2018-11-05T04:15:14.404Z,35.23
2018-11-05T04:17:43.780Z,35.50
2018-11-05T04:20:14.540Z,37.10
2018-11-05T04:22:44.714Z,37.03
2018-11-05T04:25:14.144Z,37.13
2018-11-05T04:27:43.553Z,33.60
2018-11-05T04:30:15.071Z,37.07
2018-11-05T04:32:44.526Z,35.57
2018-11-05T04:35:14.257Z,38.57
2018-11-05T04:37:43.521Z,36.27
2018-11-05T04:40:12.906Z,35.80
2018-11-05T04:42:42.237Z,35.83
2018-11-05T04:45:13.052Z,36.63
2018-11-05T04:47:43.099Z,35.43
2018-11-05T04:50:13.541Z,35.47
2018-11-05T04:52:43.814Z,35.83
2018-11-05T04:55:13.172Z,37.90
2018-11-05T04:57:42.726Z,36.93
2018-11-05T05:00:15.151Z,35.20
2018-11-05T05:02:44.622Z,34.77
2018-11-05T05:05:15.206Z,37.37
2018-11-05T05:07:44.591Z,38.10
2018-11-05T05:10:13.979Z,37.17
2018-11-05T05:12:43.972Z,35.53
2018-11-05T05:15:13.526Z,36.37
2018-11-05T05:17:42.966Z,33.97
2018-11-05T05:20:14.286Z,38.30
2018-11-05T05:22:44.071Z,36.37
2018-11-05T05:25:13.560Z,35.30
2018-11-05T05:27:42.833Z,34.23
2018-11-05T05:30:18.201Z,35.27
2018-11-05T05:32:48.915Z,34.63
2018-11-05T05:35:19.217Z,35.73
2018-11-05T05:37:48.849Z,33.93
2018-11-05T05:40:18.477Z,35.03
2018-11-05T05:42:47.922Z,35.90
2018-11-05T05:45:17.321Z,32.77
2018-11-05T05:47:46.803Z,34.27
2018-11-05T05:50:17.386Z,34.50
2018-11-05T05:52:48.310Z,34.50
2018-11-05T05:55:17.732Z,35.63
2018-11-05T05:57:47.187Z,34.80
2018-11-05T06:00:18.702Z,33.87
2018-11-05T06:02:48.161Z,34.23
2018-11-05T06:05:19.731Z,36.90
2018-11-05T06:07:49.217Z,35.20
2018-11-05T06:10:18.633Z,34.97
2018-11-05T06:12:48.101Z,40.00
2018-11-05T06:15:17.930Z,36.13
2018-11-05T06:17:47.440Z,36.93
2018-11-05T06:20:18.442Z,34.53
2018-11-05T06:22:49.875Z,36.80
2018-11-05T06:25:19.370Z,36.80
2018-11-05T06:27:48.831Z,33.53
2018-11-05T06:30:21.027Z,34.33
2018-11-05T06:32:51.292Z,31.43
2018-11-05T06:35:21.386Z,33.27
2018-11-05T06:37:50.786Z,36.43
2018-11-05T06:40:21.102Z,31.17
2018-11-05T06:42:50.758Z,34.07
2018-11-05T06:45:21.695Z,30.30
2018-11-05T06:47:51.498Z,34.07
2018-11-05T06:50:25.111Z,33.13
2018-11-05T06:52:54.750Z,36.00
2018-11-05T06:55:24.066Z,35.83
2018-11-05T06:57:53.634Z,35.47
2018-11-05T07:00:24.241Z,34.23
2018-11-05T07:02:53.728Z,34.73
2018-11-05T07:05:23.302Z,34.97
2018-11-05T07:07:52.828Z,33.87
2018-11-05T07:10:22.351Z,34.70
2018-11-05T07:12:51.952Z,36.13
2018-11-05T07:15:21.674Z,34.97
2018-11-05T07:17:51.317Z,34.60
2018-11-05T07:20:21.855Z,35.53
2018-11-05T07:22:52.217Z,33.97
2018-11-05T07:25:21.739Z,34.90
2018-11-05T07:27:51.558Z,33.63
2018-11-05T07:30:22.194Z,36.60
2018-11-05T07:32:52.898Z,33.57
2018-11-05T07:35:22.461Z,33.93
2018-11-05T07:37:52.190Z,35.10
2018-11-05T07:40:21.700Z,41.87
2018-11-05T07:42:51.225Z,34.50
2018-11-05T07:45:22.033Z,37.47
2018-11-05T07:47:51.565Z,34.80
2018-11-05T07:50:22.028Z,36.27
2018-11-05T07:52:51.937Z,36.73
2018-11-05T07:55:21.546Z,37.10
2018-11-05T07:57:51.590Z,35.40
2018-11-05T08:00:26.562Z,34.53
2018-11-05T08:02:57.056Z,35.57
2018-11-05T08:05:26.589Z,37.07
2018-11-05T08:07:56.171Z,34.07
2018-11-05T08:10:25.701Z,35.30
2018-11-05T08:12:55.214Z,36.40
2018-11-05T08:15:25.889Z,34.20
2018-11-05T08:17:55.500Z,36.90
2018-11-05T08:20:25.073Z,39.60
2018-11-05T08:22:54.978Z,37.73
2018-11-05T08:25:24.489Z,36.47
2018-11-05T08:27:54.007Z,35.90
2018-11-05T08:30:24.858Z,36.90
2018-11-05T08:32:54.583Z,35.93
2018-11-05T08:35:24.150Z,35.37
2018-11-05T08:37:53.953Z,35.27
2018-11-05T08:40:25.962Z,35.90
2018-11-05T08:42:56.010Z,35.73
2018-11-05T08:45:26.800Z,35.77
2018-11-05T08:47:56.278Z,40.37
2018-11-05T08:50:26.235Z,35.60
2018-11-05T08:52:55.638Z,36.27
2018-11-05T08:55:26.402Z,35.93
2018-11-05T08:57:55.976Z,41.57
2018-11-05T09:00:30.862Z,36.90
2018-11-05T09:03:00.297Z,34.87
2018-11-05T09:05:29.822Z,38.50
2018-11-05T09:07:59.373Z,34.13
2018-11-05T09:10:29.070Z,38.03
2018-11-05T09:12:58.639Z,37.40
2018-11-05T09:15:28.164Z,38.43
2018-11-05T09:17:57.606Z,37.10
2018-11-05T09:20:27.150Z,35.37
2018-11-05T09:22:56.686Z,35.90
2018-11-05T09:25:26.367Z,40.27
2018-11-05T09:27:55.978Z,38.47
2018-11-05T09:30:25.937Z,37.00
2018-11-05T09:32:55.519Z,38.33
2018-11-05T09:35:25.094Z,39.33
2018-11-05T09:37:54.719Z,38.87
2018-11-05T09:40:24.862Z,39.80
2018-11-05T09:42:54.519Z,38.80
2018-11-05T09:45:28.182Z,38.63
2018-11-05T09:47:57.752Z,43.27
2018-11-05T09:50:27.343Z,36.57
2018-11-05T09:52:56.892Z,36.70
2018-11-05T09:55:27.377Z,39.97
2018-11-05T09:57:57.097Z,36.07
2018-11-05T10:00:27.699Z,36.33
2018-11-05T10:03:07.492Z,36.57
2018-11-05T10:05:36.957Z,36.73
2018-11-05T10:08:06.530Z,44.13
2018-11-05T10:10:36.116Z,42.27
2018-11-05T10:13:05.658Z,37.17
2018-11-05T10:15:35.253Z,37.80
2018-11-05T10:18:04.767Z,42.00
2018-11-05T10:20:34.357Z,39.00
2018-11-05T10:23:03.967Z,42.40
2018-11-05T10:25:33.584Z,38.50
2018-11-05T10:28:09.015Z,40.77
2018-11-05T10:30:38.618Z,39.60
2018-11-05T10:33:08.275Z,41.53
2018-11-05T10:35:42.845Z,34.27
2018-11-05T10:38:12.882Z,38.63
2018-11-05T10:40:42.653Z,38.13
2018-11-05T10:43:12.298Z,36.93
2018-11-05T10:45:41.904Z,37.83
2018-11-05T10:48:11.366Z,35.93
2018-11-05T10:50:41.042Z,36.47
2018-11-05T10:53:10.597Z,32.40
2018-11-05T10:55:40.146Z,35.37
2018-11-05T10:58:09.943Z,33.87
2018-11-05T11:00:44.870Z,34.80
2018-11-05T11:03:16.089Z,33.87
2018-11-05T11:05:45.713Z,32.40
2018-11-05T11:08:15.327Z,31.80
2018-11-05T11:10:45.046Z,32.33
2018-11-05T11:13:14.655Z,33.57
2018-11-05T11:15:44.257Z,29.47
2018-11-05T11:18:13.883Z,33.20
2018-11-05T11:20:43.515Z,31.63
2018-11-05T11:23:13.082Z,34.00
2018-11-05T11:25:42.656Z,31.50
2018-11-05T11:28:12.529Z,30.40
2018-11-05T11:30:42.132Z,30.87
2018-11-05T11:33:11.757Z,30.70
2018-11-05T11:35:41.345Z,27.80
2018-11-05T11:38:11.178Z,28.73
2018-11-05T11:40:40.762Z,30.47
2018-11-05T11:43:10.344Z,29.83
2018-11-05T11:45:39.970Z,25.90
2018-11-05T11:48:09.601Z,33.50
2018-11-05T11:50:39.081Z,29.30
2018-11-05T11:53:08.946Z,28.47
2018-11-05T11:55:38.486Z,29.50
2018-11-05T11:58:08.110Z,30.77
2018-11-05T12:00:37.775Z,28.10
2018-11-05T12:03:07.448Z,28.30
2018-11-05T12:05:36.956Z,25.67
2018-11-05T12:08:06.954Z,28.93
2018-11-05T12:10:36.488Z,22.43
2018-11-05T12:13:06.044Z,25.83
2018-11-05T12:15:35.663Z,26.50
2018-11-05T12:18:05.481Z,25.93
2018-11-05T12:20:35.013Z,25.20
2018-11-05T12:23:04.816Z,26.03
2018-11-05T12:25:34.394Z,27.43
2018-11-05T12:28:04.047Z,23.77
2018-11-05T12:30:33.714Z,25.53
2018-11-05T12:33:03.370Z,25.93
2018-11-05T12:35:33.040Z,27.10
2018-11-05T12:38:02.672Z,28.33
2018-11-05T12:40:32.358Z,26.40
2018-11-05T12:43:04.020Z,26.20
2018-11-05T12:45:33.526Z,26.67
2018-11-05T12:48:03.026Z,25.00
2018-11-05T12:50:32.864Z,28.77
2018-11-05T12:53:02.258Z,24.30
2018-11-05T12:55:31.810Z,24.47
2018-11-05T12:58:01.379Z,27.00
2018-11-05T13:00:31.006Z,29.13
2018-11-05T13:03:01.528Z,29.90
2018-11-05T13:05:32.023Z,24.97
2018-11-05T13:08:01.622Z,23.73
2018-11-05T13:10:31.201Z,28.07
2018-11-05T13:13:00.810Z,24.67
2018-11-05T13:15:30.351Z,24.37
2018-11-05T13:18:00.132Z,28.77
2018-11-05T13:20:29.719Z,24.80
2018-11-05T13:22:59.312Z,24.73
2018-11-05T13:25:28.884Z,25.77
2018-11-05T13:27:58.461Z,22.67
2018-11-05T13:30:28.048Z,24.23
2018-11-05T13:32:57.562Z,25.17
2018-11-05T13:35:27.081Z,30.27
2018-11-05T13:37:56.997Z,27.07
2018-11-05T13:40:26.338Z,24.83
2018-11-05T13:42:55.920Z,26.73
2018-11-05T13:45:25.620Z,26.27
2018-11-05T13:47:55.758Z,25.27
2018-11-05T13:50:25.078Z,26.90
2018-11-05T13:52:54.375Z,28.63
2018-11-05T13:55:23.959Z,25.47
2018-11-05T13:57:53.466Z,26.53
2018-11-05T14:00:22.986Z,24.10
2018-11-05T14:02:52.514Z,26.17
2018-11-05T14:05:22.046Z,27.50
2018-11-05T14:07:51.596Z,27.53
2018-11-05T14:10:22.214Z,25.90
2018-11-05T14:12:51.918Z,25.53
2018-11-05T14:15:21.537Z,24.57
2018-11-05T14:17:51.016Z,27.37
2018-11-05T14:20:21.152Z,24.37
2018-11-05T14:22:50.826Z,24.87
2018-11-05T14:25:21.009Z,26.43
2018-11-05T14:27:51.771Z,29.27
2018-11-05T14:30:21.095Z,30.87
2018-11-05T14:32:51.315Z,30.63
2018-11-05T14:35:20.803Z,28.73
2018-11-05T14:37:50.258Z,32.97
2018-11-05T14:40:20.149Z,34.20
2018-11-05T14:42:49.678Z,31.40
2018-11-05T14:45:20.263Z,34.20
2018-11-05T14:47:51.250Z,32.73
2018-11-05T14:50:22.103Z,35.87
2018-11-05T14:52:51.615Z,34.90
2018-11-05T14:55:21.399Z,32.23
2018-11-05T14:57:51.784Z,36.40
2018-11-05T15:00:24.281Z,39.27
2018-11-05T15:02:54.091Z,34.37
2018-11-05T15:05:23.635Z,36.40
2018-11-05T15:07:53.177Z,36.53
2018-11-05T15:10:24.771Z,38.93
2018-11-05T15:12:54.350Z,36.93
2018-11-05T15:15:24.179Z,38.37
2018-11-05T15:17:53.696Z,33.43
2018-11-05T15:20:24.052Z,37.20
2018-11-05T15:22:53.747Z,35.77
2018-11-05T15:25:23.328Z,35.70
2018-11-05T15:27:52.850Z,32.67
2018-11-05T15:30:23.303Z,40.13
2018-11-05T15:32:52.863Z,37.90
2018-11-05T15:35:22.331Z,34.57
2018-11-05T15:37:51.833Z,40.50
2018-11-05T15:40:22.117Z,43.30
2018-11-05T15:42:51.579Z,37.57
2018-11-05T15:45:21.936Z,38.00
2018-11-05T15:47:51.513Z,39.50
2018-11-05T15:50:21.763Z,39.13
2018-11-05T15:52:51.996Z,42.43
2018-11-05T15:55:21.097Z,44.43
2018-11-05T15:57:50.598Z,43.77
2018-11-05T16:00:22.344Z,37.47
2018-11-05T16:02:55.202Z,42.73
2018-11-05T16:05:24.681Z,43.07
2018-11-05T16:07:54.261Z,41.17
2018-11-05T16:10:23.952Z,41.47
2018-11-05T16:12:53.518Z,40.63
2018-11-05T16:15:23.202Z,46.00
2018-11-05T16:17:52.733Z,37.57
2018-11-05T16:20:23.195Z,41.97
2018-11-05T16:22:53.242Z,48.73
2018-11-05T16:25:22.979Z,46.83
2018-11-05T16:27:52.574Z,47.93
2018-11-05T16:30:22.601Z,44.80
2018-11-05T16:32:52.783Z,44.13
2018-11-05T16:35:22.315Z,49.00
2018-11-05T16:37:52.028Z,45.70
2018-11-05T16:40:21.442Z,50.10
2018-11-05T16:42:51.729Z,47.27
2018-11-05T16:45:22.119Z,44.27
2018-11-05T16:47:51.595Z,46.33
2018-11-05T16:50:25.286Z,40.00
2018-11-05T16:52:54.586Z,46.20
2018-11-05T16:55:25.336Z,39.40
2018-11-05T16:57:54.876Z,40.10
2018-11-05T17:00:27.681Z,45.13
2018-11-05T17:02:57.412Z,35.57
2018-11-05T17:05:28.792Z,39.17
2018-11-05T17:07:58.196Z,41.23
2018-11-05T17:10:28.682Z,41.87
2018-11-05T17:12:58.081Z,49.17
2018-11-05T17:15:27.493Z,46.20
2018-11-05T17:17:57.160Z,45.70
2018-11-05T17:20:26.599Z,48.40
2018-11-05T17:22:56.944Z,48.07
2018-11-05T17:25:26.426Z,49.10
2018-11-05T17:27:55.839Z,52.43
2018-11-05T17:30:25.209Z,54.73
2018-11-05T17:32:54.552Z,55.40
2018-11-05T17:35:24.114Z,52.30
2018-11-05T17:37:53.588Z,50.47
2018-11-05T17:40:23.560Z,47.33
2018-11-05T17:42:53.056Z,51.60
2018-11-05T17:45:22.427Z,49.20
2018-11-05T17:47:52.871Z,42.23
2018-11-05T17:50:22.902Z,42.37
2018-11-05T17:52:54.376Z,48.03
2018-11-05T17:55:23.881Z,42.07
2018-11-05T17:57:57.091Z,46.93
2018-11-05T18:00:26.641Z,50.70
2018-11-05T18:02:55.958Z,51.80
2018-11-05T18:05:25.640Z,51.07
2018-11-05T18:07:54.998Z,55.13
2018-11-05T18:10:25.511Z,56.87
2018-11-05T18:12:55.122Z,51.17
2018-11-05T18:15:24.472Z,53.83
2018-11-05T18:17:53.834Z,50.60
2018-11-05T18:20:23.160Z,51.23
2018-11-05T18:22:52.477Z,47.67
2018-11-05T18:25:21.860Z,48.50
2018-11-05T18:27:51.281Z,50.70
2018-11-05T18:30:20.689Z,54.90
2018-11-05T18:32:51.106Z,50.70
2018-11-05T18:35:20.546Z,52.97
2018-11-05T18:37:52.418Z,52.80
2018-11-05T18:40:22.691Z,43.10
2018-11-05T18:42:52.047Z,51.80
2018-11-05T18:45:23.460Z,71.23
2018-11-05T18:47:52.685Z,50.03
2018-11-05T18:50:22.130Z,46.30
2018-11-05T18:52:52.369Z,45.27
2018-11-05T18:55:21.742Z,48.77
2018-11-05T18:57:51.210Z,51.90
2018-11-05T19:00:22.821Z,48.70
2018-11-05T19:02:52.905Z,49.50
2018-11-05T19:05:23.269Z,52.70
2018-11-05T19:07:52.633Z,53.37
2018-11-05T19:10:22.095Z,51.43
2018-11-05T19:12:52.328Z,42.80
2018-11-05T19:15:21.784Z,54.00
2018-11-05T19:17:51.517Z,45.47
2018-11-05T19:20:20.780Z,50.97
2018-11-05T19:22:50.189Z,51.67
2018-11-05T19:25:19.535Z,49.63
2018-11-05T19:27:48.816Z,53.67
2018-11-05T19:30:21.968Z,56.40
2018-11-05T19:32:52.327Z,53.63
2018-11-05T19:35:21.652Z,52.03
2018-11-05T19:37:50.970Z,55.13
2018-11-05T19:40:20.660Z,50.30
2018-11-05T19:42:50.409Z,52.00
2018-11-05T19:45:22.145Z,54.33
2018-11-05T19:47:51.398Z,50.97
2018-11-05T19:50:22.287Z,41.80
2018-11-05T19:52:52.671Z,55.03
2018-11-05T19:55:22.223Z,51.30
2018-11-05T19:57:54.064Z,42.17
2018-11-05T20:00:27.342Z,47.47
2018-11-05T20:02:57.696Z,43.97
2018-11-05T20:05:30.016Z,40.77
2018-11-05T20:08:00.028Z,55.80
2018-11-05T20:10:29.372Z,56.77
2018-11-05T20:12:58.690Z,47.37
2018-11-05T20:15:28.042Z,53.43
2018-11-05T20:17:57.731Z,76.87
2018-11-05T20:20:27.551Z,51.50
2018-11-05T20:22:56.909Z,41.17
2018-11-05T20:25:26.255Z,41.53
2018-11-05T20:27:55.553Z,45.97
2018-11-05T20:30:25.943Z,47.77
2018-11-05T20:32:58.522Z,50.90
2018-11-05T20:35:28.024Z,38.50
2018-11-05T20:37:57.379Z,44.80
2018-11-05T20:40:26.755Z,42.17
2018-11-05T20:43:03.661Z,49.30
2018-11-05T20:45:33.049Z,49.63
2018-11-05T20:48:02.474Z,47.73
2018-11-05T20:50:31.773Z,50.37
2018-11-05T20:53:01.238Z,56.20
2018-11-05T20:55:32.595Z,54.77
2018-11-05T20:58:02.183Z,53.27
2018-11-05T21:00:31.455Z,56.37
2018-11-05T21:03:01.873Z,59.33
2018-11-05T21:05:32.304Z,46.43
2018-11-05T21:08:01.731Z,51.03
2018-11-05T21:10:31.149Z,48.20
2018-11-05T21:13:00.447Z,45.67
2018-11-05T21:15:29.757Z,44.80
2018-11-05T21:18:00.202Z,51.30
2018-11-05T21:20:29.626Z,43.37
2018-11-05T21:22:59.087Z,42.13
2018-11-05T21:25:38.300Z,46.43
2018-11-05T21:28:07.759Z,43.37
2018-11-05T21:30:36.991Z,39.73
2018-11-05T21:33:10.525Z,39.03
2018-11-05T21:35:41.125Z,44.43
2018-11-05T21:38:10.999Z,36.37
2018-11-05T21:43:18.422Z,40.53
2018-11-05T21:45:47.722Z,39.13
2018-11-05T21:48:17.101Z,41.07
2018-11-05T21:50:46.480Z,36.50
2018-11-05T21:53:15.955Z,43.10
2018-11-05T21:55:45.241Z,45.73
2018-11-05T21:58:14.584Z,44.87
2018-11-05T22:00:44.153Z,46.13
2018-11-05T22:03:17.682Z,35.10
2018-11-05T22:05:47.007Z,38.47
2018-11-05T22:08:16.345Z,31.47
2018-11-05T22:10:46.006Z,42.40
2018-11-05T22:13:15.333Z,38.27
2018-11-05T22:15:46.642Z,33.40
2018-11-05T22:18:16.998Z,32.23
2018-11-05T22:20:46.379Z,35.83
2018-11-05T22:23:16.028Z,33.30
2018-11-05T22:25:45.370Z,34.40
2018-11-05T22:28:14.703Z,34.63
2018-11-05T22:30:44.221Z,36.90
2018-11-05T22:33:13.505Z,40.37
2018-11-05T22:35:42.992Z,34.50
2018-11-05T22:38:12.647Z,39.73
2018-11-05T22:40:41.929Z,41.47
2018-11-05T22:43:11.245Z,40.90
2018-11-05T22:45:40.831Z,37.80
2018-11-05T22:48:10.199Z,39.90
2018-11-05T22:50:39.606Z,33.83
2018-11-05T22:53:08.909Z,32.33
2018-11-05T22:55:38.198Z,34.60
2018-11-05T22:58:07.717Z,33.10
2018-11-05T23:00:42.330Z,34.80
2018-11-05T23:03:16.838Z,28.93
2018-11-05T23:05:46.355Z,30.07
2018-11-05T23:08:15.634Z,29.97
2018-11-05T23:10:44.997Z,30.57
2018-11-05T23:13:14.303Z,33.77
2018-11-05T23:15:50.456Z,34.47
2018-11-05T23:18:19.857Z,33.53
2018-11-05T23:20:49.223Z,34.83
2018-11-05T23:23:18.533Z,37.53
2018-11-05T23:25:47.862Z,31.77
2018-11-05T23:28:17.470Z,35.50
2018-11-05T23:30:46.934Z,31.70
2018-11-05T23:33:16.221Z,33.80
2018-11-05T23:35:45.497Z,32.57
2018-11-05T23:38:14.861Z,32.17
2018-11-05T23:40:44.522Z,35.47
2018-11-05T23:43:18.960Z,36.20
2018-11-05T23:45:48.389Z,42.60
2018-11-05T23:48:17.752Z,45.20
2018-11-05T23:50:47.289Z,48.20
2018-11-05T23:53:16.573Z,43.03
2018-11-05T23:55:46.009Z,46.97
2018-11-05T23:58:15.328Z,45.63
